Time;durP1;ratioP1;P1;durP2;ratioP2;P2;SDS_P1;SDS_P2;PMS_P1;PMS_P2;Temp;Humidity;BMP_temperature;BMP_pressure;BME280_temperature;BME280_humidity;BME280_pressure;Samples;Min_cycle;Max_cycle;Signal;HPM_P1;HPM_P2
2022/12/04 18:58:47;;;;;;;47.53;20.98;;;;;;;5.65;86.24;97605.31;4881159;29;20132;-67
2022/12/04 19:01:14;;;;;;;45.92;20.35;;;;;;;5.63;86.35;97594.97;4863728;29;20043;-66
2022/12/04 19:03:40;;;;;;;45.40;20.80;;;;;;;5.64;86.55;97599.28;4863530;29;20029;-66
2022/12/04 19:06:05;;;;;;;45.90;18.88;;;;;;;5.65;86.24;97594.91;4873783;29;20031;-66
2022/12/04 19:08:31;;;;;;;48.50;18.90;;;;;;;5.65;86.21;97594.91;4859889;29;20385;-67
2022/12/04 19:11:04;;;;;;;47.45;18.55;;;;;;;5.65;86.23;97602.72;4834368;29;20386;-66
2022/12/04 19:13:29;;;;;;;60.40;23.23;;;;;;;5.66;86.20;97599.16;4858965;29;20565;-66
2022/12/04 19:15:54;;;;;;;57.95;22.90;;;;;;;5.66;86.38;97589.59;4850922;29;20038;-67
2022/12/04 19:18:20;;;;;;;60.70;25.00;;;;;;;5.66;86.42;97592.19;4859023;29;20425;-67
2022/12/04 19:20:45;;;;;;;54.13;23.23;;;;;;;5.68;86.48;97594.72;4853732;29;20036;-66
2022/12/04 19:23:10;;;;;;;52.42;25.20;;;;;;;5.67;86.35;97601.66;4852169;29;20038;-66
2022/12/04 19:25:36;;;;;;;50.47;23.63;;;;;;;5.68;86.23;97605.13;4861248;29;20033;-66
2022/12/04 19:28:02;;;;;;;84.28;30.48;;;;;;;5.67;86.27;97600.84;4861803;29;20033;-66
2022/12/04 19:30:28;;;;;;;129.32;43.13;;;;;;;5.68;86.39;97605.97;4870234;29;20029;-67
2022/12/04 19:32:53;;;;;;;153.65;47.20;;;;;;;5.66;86.70;97607.81;4852587;29;20033;-67
2022/12/04 19:35:18;;;;;;;146.23;43.60;;;;;;;5.69;86.35;97609.41;4848610;29;20405;-67
2022/12/04 19:37:44;;;;;;;95.70;34.15;;;;;;;5.68;86.62;97607.75;4851852;29;20035;-67
2022/12/04 19:40:10;;;;;;;108.35;39.28;;;;;;;5.68;86.78;97610.34;4834081;29;20040;-67
2022/12/04 19:42:35;;;;;;;139.55;47.85;;;;;;;5.69;86.83;97609.41;4863398;29;20040;-66
2022/12/04 19:45:00;;;;;;;119.00;44.85;;;;;;;5.68;86.62;97615.53;4846198;29;20051;-65
2022/12/04 19:47:26;;;;;;;90.03;39.47;;;;;;;5.68;86.41;97620.75;4860991;29;20026;-66
2022/12/04 19:49:51;;;;;;;83.03;37.55;;;;;;;5.66;86.34;97617.38;4859409;29;20029;-65
2022/12/04 19:52:16;;;;;;;70.25;33.78;;;;;;;5.69;86.72;97617.22;4850363;29;20033;-65
2022/12/04 19:54:42;;;;;;;61.13;28.85;;;;;;;5.70;86.98;97616.28;4870245;29;20038;-65
2022/12/04 19:57:07;;;;;;;53.03;26.80;;;;;;;5.71;86.85;97620.53;4859389;29;20045;-65
2022/12/04 19:59:32;;;;;;;55.08;25.50;;;;;;;5.70;87.18;97619.72;4855318;29;20029;-65
2022/12/04 20:01:58;;;;;;;53.97;22.77;;;;;;;5.71;86.79;97626.59;4861052;29;20061;-65
2022/12/04 20:04:23;;;;;;;50.90;22.52;;;;;;;5.72;86.65;97624.84;4863707;29;20059;-66
2022/12/04 20:06:49;;;;;;;56.95;24.80;;;;;;;5.71;86.83;97623.16;4872706;29;20037;-65
2022/12/04 20:09:17;;;;;;;89.60;35.92;;;;;;;5.72;87.18;97628.28;4865224;29;20030;-65
2022/12/04 20:11:43;;;;;;;132.82;47.63;;;;;;;5.72;87.14;97640.44;4867707;29;20061;-65
2022/12/04 20:14:08;;;;;;;147.90;58.80;;;;;;;5.72;87.26;97635.25;4866813;29;20025;-65
2022/12/04 20:16:34;;;;;;;110.85;46.15;;;;;;;5.75;87.39;97636.81;4833440;29;20029;-65
2022/12/04 20:19:00;;;;;;;70.88;29.38;;;;;;;5.74;87.11;97635.97;4847720;29;20065;-65
2022/12/04 20:21:27;;;;;;;64.00;27.33;;;;;;;5.74;87.16;97640.34;4861023;29;20064;-64
2022/12/04 20:23:53;;;;;;;58.90;25.80;;;;;;;5.73;86.98;97634.31;4846958;29;20405;-65
2022/12/04 20:26:21;;;;;;;54.20;24.02;;;;;;;5.75;87.42;97636.81;4834619;29;20036;-64
2022/12/04 20:28:47;;;;;;;51.20;23.73;;;;;;;5.74;87.32;97643.78;4859554;29;20038;-65
2022/12/04 20:31:16;;;;;;;57.70;24.80;;;;;;;5.73;87.57;97649.94;4840317;29;20029;-65
2022/12/04 20:33:42;;;;;;;52.53;22.33;;;;;;;5.72;87.34;97650.88;4857168;29;20021;-65
2022/12/04 20:36:09;;;;;;;50.35;21.30;;;;;;;5.73;87.35;97655.13;4846172;29;20041;-65
2022/12/04 20:38:34;;;;;;;50.13;20.88;;;;;;;5.72;87.62;97653.47;4861834;29;20120;-65
2022/12/04 20:41:03;;;;;;;54.58;21.60;;;;;;;5.74;87.63;97659.41;4853878;29;20029;-64
2022/12/04 20:43:29;;;;;;;51.38;21.38;;;;;;;5.74;87.63;97656.78;4872696;29;20037;-64
2022/12/04 20:45:54;;;;;;;59.63;23.65;;;;;;;5.74;87.83;97656.78;4863816;29;20030;-65
2022/12/04 20:48:19;;;;;;;74.00;27.73;;;;;;;5.73;87.72;97660.34;4859089;29;20481;-65
2022/12/04 20:50:45;;;;;;;68.05;29.02;;;;;;;5.74;87.82;97661.16;4860246;29;20039;-65
2022/12/04 20:53:10;;;;;;;58.50;24.90;;;;;;;5.75;87.87;97661.09;4872301;29;20025;-65
2022/12/04 20:55:36;;;;;;;55.58;24.40;;;;;;;5.76;87.59;97654.13;4855192;29;20099;-65
2022/12/04 20:58:01;;;;;;;61.85;24.58;;;;;;;5.74;87.86;97651.59;4850509;29;20047;-64
2022/12/04 21:00:27;;;;;;;54.25;21.45;;;;;;;5.75;87.85;97655.88;4864673;29;20378;-65
2022/12/04 21:02:53;;;;;;;48.40;20.05;;;;;;;5.74;87.79;97656.78;4846612;29;20033;-64
2022/12/04 21:05:18;;;;;;;43.65;18.42;;;;;;;5.71;87.77;97652.63;4859995;29;20509;-65
2022/12/04 21:07:43;;;;;;;50.70;19.52;;;;;;;5.74;87.85;97655.97;4858457;29;20039;-64
2022/12/04 21:10:09;;;;;;;47.70;18.73;;;;;;;5.74;87.94;97651.59;4859084;29;20037;-66
2022/12/04 21:18:02;;;;;;;50.78;20.77;;;;;;;5.71;88.15;97659.56;4869392;29;20428;-65
2022/12/04 21:20:27;;;;;;;52.80;21.20;;;;;;;5.70;88.08;97657.91;4865699;29;20493;-66
2022/12/04 21:22:53;;;;;;;55.50;21.45;;;;;;;5.70;88.27;97663.09;4865918;29;20049;-65
2022/12/04 21:25:18;;;;;;;51.53;21.67;;;;;;;5.71;88.04;97659.56;4855271;29;20057;-65
2022/12/04 21:27:44;;;;;;;48.28;20.33;;;;;;;5.70;88.30;97657.91;4855055;29;20031;-65
2022/12/04 21:30:09;;;;;;;55.00;23.10;;;;;;;5.71;88.36;97662.16;4849978;29;20039;-65
2022/12/04 21:32:35;;;;;;;53.47;22.25;;;;;;;5.73;88.19;97668.13;4874781;29;20386;-65
